Nearby METAR Reports

 

KTOP - Billard Municipal Airport, Topeka, Kansas, USA
Updated: Mon, 18-Dec-2017 9:53am CST
Clear
Clear
 Wind from SW
Wind: SW 7 mph , 11 km/h
Temperature: 43°F , 6°C
Wind Chill: 39°F , 4°C
Dew Point: 36°F , 2°C
Humidity: 76%
Barometer: 30.09 inHg , 1019 hPa
Clouds: Clear
Visibility: 10 miles , 16 km
2017/12/18 15:53 KTOP 181553Z 22006KT 10SM CLR 06/02 A3009 RMK AO2 SLP191 T00610017
KFOE - Forbes Field Airport, Topeka, Kansas, USA
Updated: Mon, 18-Dec-2017 9:53am CST
Clear
Clear
 Wind from SW
Wind: SW 10 mph , 17 km/h
Temperature: 43°F , 6°C
Wind Chill: 37°F , 3°C
Dew Point: 39°F , 4°C
Humidity: 87%
Barometer: 30.09 inHg , 1019 hPa
Clouds: Clear
Visibility: 7 miles , 11 km
2017/12/18 15:53 KFOE 181553Z 22009KT 7SM CLR 06/04 A3009 RMK AO2 SLP193 T00610039